sensor_id;sensor_type;location;lat;lon;timestamp;P1;durP1;ratioP1;P2;durP2;ratioP2
54743;SDS011;40639;53.170;6.728;2023-12-29T00:00:05;8.57;;;2.60;;
54743;SDS011;40639;53.170;6.728;2023-12-29T00:02:32;7.35;;;2.63;;
54743;SDS011;40639;53.170;6.728;2023-12-29T00:04:58;7.95;;;2.08;;
54743;SDS011;40639;53.170;6.728;2023-12-29T00:07:24;8.77;;;2.63;;
54743;SDS011;40639;53.170;6.728;2023-12-29T00:09:50;6.30;;;2.25;;
54743;SDS011;40639;53.170;6.728;2023-12-29T00:12:16;9.40;;;2.60;;
54743;SDS011;40639;53.170;6.728;2023-12-29T00:14:42;10.10;;;2.38;;
54743;SDS011;40639;53.170;6.728;2023-12-29T00:17:08;10.63;;;2.45;;
54743;SDS011;40639;53.170;6.728;2023-12-29T00:19:34;6.50;;;2.55;;
54743;SDS011;40639;53.170;6.728;2023-12-29T00:22:01;7.25;;;2.50;;
54743;SDS011;40639;53.170;6.728;2023-12-29T00:24:28;8.88;;;2.28;;
54743;SDS011;40639;53.170;6.728;2023-12-29T00:26:56;8.45;;;2.67;;
54743;SDS011;40639;53.170;6.728;2023-12-29T00:29:24;9.55;;;2.10;;
54743;SDS011;40639;53.170;6.728;2023-12-29T00:31:50;11.32;;;2.45;;
54743;SDS011;40639;53.170;6.728;2023-12-29T00:34:16;9.55;;;2.00;;
54743;SDS011;40639;53.170;6.728;2023-12-29T00:36:42;9.57;;;2.10;;
54743;SDS011;40639;53.170;6.728;2023-12-29T00:39:08;10.23;;;2.53;;
54743;SDS011;40639;53.170;6.728;2023-12-29T00:41:34;9.60;;;2.63;;
54743;SDS011;40639;53.170;6.728;2023-12-29T00:44:00;6.60;;;2.35;;
54743;SDS011;40639;53.170;6.728;2023-12-29T00:46:27;9.63;;;2.08;;
54743;SDS011;40639;53.170;6.728;2023-12-29T00:48:53;8.10;;;1.88;;
54743;SDS011;40639;53.170;6.728;2023-12-29T00:51:19;10.95;;;2.10;;
54743;SDS011;40639;53.170;6.728;2023-12-29T00:53:45;6.45;;;2.20;;
54743;SDS011;40639;53.170;6.728;2023-12-29T00:56:11;12.88;;;2.30;;
54743;SDS011;40639;53.170;6.728;2023-12-29T00:58:38;9.43;;;2.00;;
54743;SDS011;40639;53.170;6.728;2023-12-29T01:01:06;9.40;;;2.22;;
54743;SDS011;40639;53.170;6.728;2023-12-29T01:03:33;10.93;;;2.28;;
54743;SDS011;40639;53.170;6.728;2023-12-29T01:05:59;11.63;;;2.28;;
54743;SDS011;40639;53.170;6.728;2023-12-29T01:08:26;7.75;;;1.98;;
54743;SDS011;40639;53.170;6.728;2023-12-29T01:10:53;8.68;;;1.77;;
54743;SDS011;40639;53.170;6.728;2023-12-29T01:13:19;6.32;;;1.80;;
54743;SDS011;40639;53.170;6.728;2023-12-29T01:15:45;9.85;;;2.67;;
54743;SDS011;40639;53.170;6.728;2023-12-29T01:18:11;12.77;;;2.67;;
54743;SDS011;40639;53.170;6.728;2023-12-29T01:20:37;10.93;;;2.67;;
54743;SDS011;40639;53.170;6.728;2023-12-29T01:23:07;12.52;;;2.63;;
54743;SDS011;40639;53.170;6.728;2023-12-29T01:25:34;7.10;;;2.35;;
54743;SDS011;40639;53.170;6.728;2023-12-29T01:28:00;11.68;;;2.30;;
54743;SDS011;40639;53.170;6.728;2023-12-29T01:30:26;8.82;;;2.50;;
54743;SDS011;40639;53.170;6.728;2023-12-29T01:32:52;11.77;;;2.97;;
54743;SDS011;40639;53.170;6.728;2023-12-29T01:35:18;7.18;;;2.33;;
54743;SDS011;40639;53.170;6.728;2023-12-29T01:37:44;9.20;;;3.38;;
54743;SDS011;40639;53.170;6.728;2023-12-29T01:40:10;12.55;;;2.88;;
54743;SDS011;40639;53.170;6.728;2023-12-29T01:42:37;9.98;;;2.72;;
54743;SDS011;40639;53.170;6.728;2023-12-29T01:45:03;8.73;;;2.45;;
54743;SDS011;40639;53.170;6.728;2023-12-29T01:47:29;12.98;;;2.92;;
54743;SDS011;40639;53.170;6.728;2023-12-29T01:49:56;12.52;;;3.65;;
54743;SDS011;40639;53.170;6.728;2023-12-29T01:52:22;11.13;;;2.92;;
54743;SDS011;40639;53.170;6.728;2023-12-29T01:54:49;12.52;;;2.65;;
54743;SDS011;40639;53.170;6.728;2023-12-29T01:57:17;9.27;;;2.33;;
54743;SDS011;40639;53.170;6.728;2023-12-29T01:59:45;4.63;;;0.77;;
54743;SDS011;40639;53.170;6.728;2023-12-29T02:02:12;4.35;;;0.80;;
54743;SDS011;40639;53.170;6.728;2023-12-29T02:04:40;3.33;;;0.85;;
54743;SDS011;40639;53.170;6.728;2023-12-29T02:07:06;2.88;;;0.98;;
54743;SDS011;40639;53.170;6.728;2023-12-29T02:09:33;3.15;;;0.90;;
54743;SDS011;40639;53.170;6.728;2023-12-29T02:12:00;2.47;;;0.45;;
54743;SDS011;40639;53.170;6.728;2023-12-29T02:14:26;0.90;;;0.55;;
54743;SDS011;40639;53.170;6.728;2023-12-29T02:17:17;2.92;;;0.65;;
54743;SDS011;40639;53.170;6.728;2023-12-29T02:19:46;3.67;;;0.93;;
54743;SDS011;40639;53.170;6.728;2023-12-29T02:22:14;5.55;;;0.80;;
54743;SDS011;40639;53.170;6.728;2023-12-29T02:24:50;5.72;;;1.48;;
54743;SDS011;40639;53.170;6.728;2023-12-29T02:32:30;8.35;;;1.45;;
54743;SDS011;40639;53.170;6.728;2023-12-29T02:34:58;7.60;;;1.67;;
54743;SDS011;40639;53.170;6.728;2023-12-29T02:37:25;5.43;;;1.92;;
54743;SDS011;40639;53.170;6.728;2023-12-29T02:39:52;9.73;;;2.20;;
54743;SDS011;40639;53.170;6.728;2023-12-29T02:42:18;9.48;;;1.73;;
54743;SDS011;40639;53.170;6.728;2023-12-29T02:44:44;9.00;;;1.63;;
54743;SDS011;40639;53.170;6.728;2023-12-29T02:47:10;11.00;;;2.00;;
54743;SDS011;40639;53.170;6.728;2023-12-29T02:49:37;5.20;;;1.50;;
54743;SDS011;40639;53.170;6.728;2023-12-29T02:52:03;6.85;;;1.20;;
54743;SDS011;40639;53.170;6.728;2023-12-29T02:54:29;5.32;;;1.70;;
54743;SDS011;40639;53.170;6.728;2023-12-29T02:56:55;8.25;;;1.60;;
54743;SDS011;40639;53.170;6.728;2023-12-29T02:59:21;7.20;;;1.95;;
54743;SDS011;40639;53.170;6.728;2023-12-29T03:01:47;9.55;;;2.70;;
54743;SDS011;40639;53.170;6.728;2023-12-29T03:04:13;9.77;;;2.17;;
54743;SDS011;40639;53.170;6.728;2023-12-29T03:06:40;12.25;;;3.00;;
54743;SDS011;40639;53.170;6.728;2023-12-29T03:09:06;11.68;;;2.28;;
54743;SDS011;40639;53.170;6.728;2023-12-29T03:11:32;11.10;;;2.38;;
54743;SDS011;40639;53.170;6.728;2023-12-29T03:13:58;15.75;;;2.85;;
54743;SDS011;40639;53.170;6.728;2023-12-29T03:16:25;11.35;;;3.13;;
54743;SDS011;40639;53.170;6.728;2023-12-29T03:18:51;11.52;;;2.80;;
54743;SDS011;40639;53.170;6.728;2023-12-29T03:21:17;10.65;;;3.08;;
54743;SDS011;40639;53.170;6.728;2023-12-29T03:23:43;17.10;;;3.28;;
54743;SDS011;40639;53.170;6.728;2023-12-29T03:26:09;21.35;;;4.07;;
54743;SDS011;40639;53.170;6.728;2023-12-29T03:28:35;17.02;;;3.13;;
54743;SDS011;40639;53.170;6.728;2023-12-29T03:31:01;17.08;;;3.88;;
54743;SDS011;40639;53.170;6.728;2023-12-29T03:33:27;11.48;;;2.60;;
54743;SDS011;40639;53.170;6.728;2023-12-29T03:35:54;12.10;;;3.05;;
54743;SDS011;40639;53.170;6.728;2023-12-29T03:38:20;14.32;;;3.10;;
54743;SDS011;40639;53.170;6.728;2023-12-29T03:40:46;16.70;;;3.53;;
54743;SDS011;40639;53.170;6.728;2023-12-29T03:43:12;14.35;;;3.60;;
54743;SDS011;40639;53.170;6.728;2023-12-29T03:45:38;17.05;;;3.50;;
54743;SDS011;40639;53.170;6.728;2023-12-29T03:48:04;15.48;;;3.65;;
54743;SDS011;40639;53.170;6.728;2023-12-29T03:50:31;16.90;;;3.50;;
54743;SDS011;40639;53.170;6.728;2023-12-29T03:52:57;11.98;;;3.83;;
54743;SDS011;40639;53.170;6.728;2023-12-29T03:55:23;19.67;;;3.85;;
54743;SDS011;40639;53.170;6.728;2023-12-29T03:57:49;16.17;;;4.03;;
54743;SDS011;40639;53.170;6.728;2023-12-29T04:00:15;22.77;;;4.03;;
54743;SDS011;40639;53.170;6.728;2023-12-29T04:02:41;15.25;;;3.55;;
54743;SDS011;40639;53.170;6.728;2023-12-29T04:05:10;16.55;;;3.88;;
54743;SDS011;40639;53.170;6.728;2023-12-29T04:07:39;21.15;;;4.07;;
54743;SDS011;40639;53.170;6.728;2023-12-29T04:10:06;21.30;;;4.07;;
54743;SDS011;40639;53.170;6.728;2023-12-29T04:12:33;20.60;;;4.70;;
54743;SDS011;40639;53.170;6.728;2023-12-29T04:14:59;15.27;;;3.72;;
54743;SDS011;40639;53.170;6.728;2023-12-29T04:17:25;16.63;;;3.85;;
54743;SDS011;40639;53.170;6.728;2023-12-29T04:19:51;19.48;;;4.07;;
54743;SDS011;40639;53.170;6.728;2023-12-29T04:22:18;17.73;;;4.05;;
54743;SDS011;40639;53.170;6.728;2023-12-29T04:24:44;17.50;;;4.43;;
54743;SDS011;40639;53.170;6.728;2023-12-29T04:27:10;18.25;;;3.88;;
54743;SDS011;40639;53.170;6.728;2023-12-29T04:29:36;22.33;;;3.75;;
54743;SDS011;40639;53.170;6.728;2023-12-29T04:32:02;16.27;;;3.65;;
54743;SDS011;40639;53.170;6.728;2023-12-29T04:34:29;17.85;;;4.07;;
54743;SDS011;40639;53.170;6.728;2023-12-29T04:36:55;17.70;;;4.65;;
54743;SDS011;40639;53.170;6.728;2023-12-29T04:39:21;14.98;;;3.40;;
54743;SDS011;40639;53.170;6.728;2023-12-29T04:41:47;18.33;;;3.08;;
54743;SDS011;40639;53.170;6.728;2023-12-29T04:44:13;18.23;;;3.28;;
54743;SDS011;40639;53.170;6.728;2023-12-29T04:46:39;15.23;;;4.15;;
54743;SDS011;40639;53.170;6.728;2023-12-29T04:49:05;10.82;;;3.15;;
54743;SDS011;40639;53.170;6.728;2023-12-29T04:51:31;15.48;;;4.07;;
54743;SDS011;40639;53.170;6.728;2023-12-29T04:53:57;12.88;;;3.20;;
54743;SDS011;40639;53.170;6.728;2023-12-29T04:56:24;16.88;;;3.53;;
54743;SDS011;40639;53.170;6.728;2023-12-29T04:58:51;17.40;;;3.55;;
54743;SDS011;40639;53.170;6.728;2023-12-29T05:01:17;16.48;;;3.90;;
54743;SDS011;40639;53.170;6.728;2023-12-29T05:03:43;19.65;;;3.53;;
54743;SDS011;40639;53.170;6.728;2023-12-29T05:06:09;17.27;;;3.10;;
54743;SDS011;40639;53.170;6.728;2023-12-29T05:08:36;18.83;;;3.97;;
54743;SDS011;40639;53.170;6.728;2023-12-29T05:11:02;22.17;;;4.07;;
54743;SDS011;40639;53.170;6.728;2023-12-29T05:13:28;11.90;;;3.50;;
54743;SDS011;40639;53.170;6.728;2023-12-29T05:15:54;13.13;;;3.67;;
54743;SDS011;40639;53.170;6.728;2023-12-29T05:18:20;16.50;;;3.70;;
54743;SDS011;40639;53.170;6.728;2023-12-29T05:20:46;24.52;;;3.95;;
54743;SDS011;40639;53.170;6.728;2023-12-29T05:23:13;19.95;;;3.83;;
54743;SDS011;40639;53.170;6.728;2023-12-29T05:25:39;14.93;;;3.78;;
54743;SDS011;40639;53.170;6.728;2023-12-29T05:28:05;12.90;;;3.90;;
54743;SDS011;40639;53.170;6.728;2023-12-29T05:30:31;18.13;;;3.83;;
54743;SDS011;40639;53.170;6.728;2023-12-29T05:32:57;18.00;;;3.75;;
54743;SDS011;40639;53.170;6.728;2023-12-29T05:35:23;16.33;;;3.55;;
54743;SDS011;40639;53.170;6.728;2023-12-29T05:37:50;24.17;;;3.80;;
54743;SDS011;40639;53.170;6.728;2023-12-29T05:40:16;10.65;;;2.92;;
54743;SDS011;40639;53.170;6.728;2023-12-29T05:42:42;16.95;;;3.80;;
54743;SDS011;40639;53.170;6.728;2023-12-29T05:45:08;19.13;;;3.50;;
54743;SDS011;40639;53.170;6.728;2023-12-29T05:47:34;18.20;;;3.58;;
54743;SDS011;40639;53.170;6.728;2023-12-29T05:50:00;12.88;;;4.28;;
54743;SDS011;40639;53.170;6.728;2023-12-29T05:52:27;15.18;;;4.07;;
54743;SDS011;40639;53.170;6.728;2023-12-29T05:54:54;17.67;;;3.42;;
54743;SDS011;40639;53.170;6.728;2023-12-29T05:57:20;15.20;;;4.18;;
54743;SDS011;40639;53.170;6.728;2023-12-29T05:59:46;14.20;;;2.83;;
54743;SDS011;40639;53.170;6.728;2023-12-29T06:02:12;16.35;;;3.53;;
54743;SDS011;40639;53.170;6.728;2023-12-29T06:04:38;18.17;;;3.47;;
54743;SDS011;40639;53.170;6.728;2023-12-29T06:07:04;14.85;;;4.35;;
54743;SDS011;40639;53.170;6.728;2023-12-29T06:09:31;13.02;;;3.50;;
54743;SDS011;40639;53.170;6.728;2023-12-29T06:11:57;12.77;;;3.53;;
54743;SDS011;40639;53.170;6.728;2023-12-29T06:14:23;17.85;;;4.10;;
54743;SDS011;40639;53.170;6.728;2023-12-29T06:16:49;13.63;;;3.15;;
54743;SDS011;40639;53.170;6.728;2023-12-29T06:19:15;20.15;;;3.97;;
54743;SDS011;40639;53.170;6.728;2023-12-29T06:21:42;19.48;;;4.15;;
54743;SDS011;40639;53.170;6.728;2023-12-29T06:24:08;15.45;;;3.05;;
54743;SDS011;40639;53.170;6.728;2023-12-29T06:26:35;16.48;;;3.17;;
54743;SDS011;40639;53.170;6.728;2023-12-29T06:29:01;21.98;;;3.85;;
54743;SDS011;40639;53.170;6.728;2023-12-29T06:31:27;14.32;;;2.97;;
54743;SDS011;40639;53.170;6.728;2023-12-29T06:33:53;14.57;;;3.20;;
54743;SDS011;40639;53.170;6.728;2023-12-29T06:36:20;11.70;;;3.03;;
54743;SDS011;40639;53.170;6.728;2023-12-29T06:38:46;12.98;;;2.53;;
54743;SDS011;40639;53.170;6.728;2023-12-29T06:41:13;15.77;;;3.30;;
54743;SDS011;40639;53.170;6.728;2023-12-29T06:43:40;17.27;;;3.15;;
54743;SDS011;40639;53.170;6.728;2023-12-29T06:46:06;13.52;;;2.78;;
54743;SDS011;40639;53.170;6.728;2023-12-29T06:48:33;16.77;;;2.95;;
54743;SDS011;40639;53.170;6.728;2023-12-29T06:50:59;17.33;;;2.97;;
54743;SDS011;40639;53.170;6.728;2023-12-29T06:53:26;16.42;;;3.83;;
54743;SDS011;40639;53.170;6.728;2023-12-29T06:55:52;11.20;;;2.38;;
54743;SDS011;40639;53.170;6.728;2023-12-29T06:58:18;17.23;;;3.50;;
54743;SDS011;40639;53.170;6.728;2023-12-29T07:00:44;14.70;;;3.30;;
54743;SDS011;40639;53.170;6.728;2023-12-29T07:03:12;15.98;;;2.90;;
54743;SDS011;40639;53.170;6.728;2023-12-29T07:05:39;18.85;;;3.67;;
54743;SDS011;40639;53.170;6.728;2023-12-29T07:08:05;13.32;;;3.65;;
54743;SDS011;40639;53.170;6.728;2023-12-29T07:10:31;17.80;;;3.45;;
54743;SDS011;40639;53.170;6.728;2023-12-29T07:12:57;17.02;;;3.25;;
54743;SDS011;40639;53.170;6.728;2023-12-29T07:15:23;22.52;;;3.90;;
54743;SDS011;40639;53.170;6.728;2023-12-29T07:17:49;17.10;;;3.53;;
54743;SDS011;40639;53.170;6.728;2023-12-29T07:20:15;15.93;;;3.13;;
54743;SDS011;40639;53.170;6.728;2023-12-29T07:22:42;16.38;;;5.38;;
54743;SDS011;40639;53.170;6.728;2023-12-29T07:25:08;14.32;;;3.25;;
54743;SDS011;40639;53.170;6.728;2023-12-29T07:27:35;18.55;;;3.88;;
54743;SDS011;40639;53.170;6.728;2023-12-29T07:30:01;19.75;;;3.70;;
54743;SDS011;40639;53.170;6.728;2023-12-29T07:32:27;16.38;;;3.13;;
54743;SDS011;40639;53.170;6.728;2023-12-29T07:34:54;19.63;;;3.70;;
54743;SDS011;40639;53.170;6.728;2023-12-29T07:37:21;19.77;;;4.65;;
54743;SDS011;40639;53.170;6.728;2023-12-29T07:39:47;14.60;;;3.38;;
54743;SDS011;40639;53.170;6.728;2023-12-29T07:42:13;18.27;;;3.53;;
54743;SDS011;40639;53.170;6.728;2023-12-29T07:44:42;15.75;;;4.10;;
54743;SDS011;40639;53.170;6.728;2023-12-29T07:47:08;15.30;;;3.75;;
54743;SDS011;40639;53.170;6.728;2023-12-29T07:49:36;18.67;;;3.42;;
54743;SDS011;40639;53.170;6.728;2023-12-29T07:52:02;21.25;;;4.25;;
54743;SDS011;40639;53.170;6.728;2023-12-29T07:54:28;26.88;;;5.00;;
54743;SDS011;40639;53.170;6.728;2023-12-29T07:56:54;15.23;;;3.55;;
54743;SDS011;40639;53.170;6.728;2023-12-29T07:59:21;14.88;;;3.90;;
54743;SDS011;40639;53.170;6.728;2023-12-29T08:01:47;15.23;;;3.58;;
54743;SDS011;40639;53.170;6.728;2023-12-29T08:04:13;18.85;;;4.13;;
54743;SDS011;40639;53.170;6.728;2023-12-29T08:06:39;15.35;;;3.85;;
54743;SDS011;40639;53.170;6.728;2023-12-29T08:09:05;16.23;;;3.83;;
54743;SDS011;40639;53.170;6.728;2023-12-29T08:11:32;15.32;;;4.30;;
54743;SDS011;40639;53.170;6.728;2023-12-29T08:13:58;18.52;;;4.28;;
54743;SDS011;40639;53.170;6.728;2023-12-29T08:16:24;15.80;;;3.50;;
54743;SDS011;40639;53.170;6.728;2023-12-29T08:18:51;15.00;;;3.22;;
54743;SDS011;40639;53.170;6.728;2023-12-29T08:21:20;17.67;;;3.40;;
54743;SDS011;40639;53.170;6.728;2023-12-29T08:23:47;16.92;;;3.60;;
54743;SDS011;40639;53.170;6.728;2023-12-29T08:26:13;15.10;;;3.75;;
54743;SDS011;40639;53.170;6.728;2023-12-29T08:28:39;15.60;;;4.25;;
54743;SDS011;40639;53.170;6.728;2023-12-29T08:31:06;12.35;;;2.78;;
54743;SDS011;40639;53.170;6.728;2023-12-29T08:33:33;17.40;;;3.70;;
54743;SDS011;40639;53.170;6.728;2023-12-29T08:35:59;18.70;;;3.50;;
54743;SDS011;40639;53.170;6.728;2023-12-29T08:38:26;18.75;;;3.80;;
54743;SDS011;40639;53.170;6.728;2023-12-29T08:40:52;17.80;;;4.22;;
54743;SDS011;40639;53.170;6.728;2023-12-29T08:43:19;14.15;;;3.13;;
54743;SDS011;40639;53.170;6.728;2023-12-29T08:45:49;19.30;;;3.83;;
54743;SDS011;40639;53.170;6.728;2023-12-29T08:48:15;11.70;;;3.50;;
54743;SDS011;40639;53.170;6.728;2023-12-29T08:50:41;30.20;;;3.83;;
54743;SDS011;40639;53.170;6.728;2023-12-29T08:53:08;19.35;;;3.65;;
54743;SDS011;40639;53.170;6.728;2023-12-29T08:55:34;19.33;;;3.35;;
54743;SDS011;40639;53.170;6.728;2023-12-29T08:58:00;15.88;;;3.20;;
54743;SDS011;40639;53.170;6.728;2023-12-29T09:00:27;17.23;;;4.13;;
54743;SDS011;40639;53.170;6.728;2023-12-29T09:02:55;15.20;;;3.33;;
54743;SDS011;40639;53.170;6.728;2023-12-29T09:05:21;19.30;;;3.50;;
54743;SDS011;40639;53.170;6.728;2023-12-29T09:07:47;17.85;;;3.58;;
54743;SDS011;40639;53.170;6.728;2023-12-29T09:10:14;19.60;;;4.28;;
54743;SDS011;40639;53.170;6.728;2023-12-29T09:12:40;16.23;;;3.65;;
54743;SDS011;40639;53.170;6.728;2023-12-29T09:15:06;19.58;;;4.10;;
54743;SDS011;40639;53.170;6.728;2023-12-29T09:17:33;23.05;;;4.22;;
54743;SDS011;40639;53.170;6.728;2023-12-29T09:19:59;16.00;;;4.13;;
54743;SDS011;40639;53.170;6.728;2023-12-29T09:22:25;24.33;;;4.10;;
54743;SDS011;40639;53.170;6.728;2023-12-29T09:24:53;17.00;;;3.50;;
54743;SDS011;40639;53.170;6.728;2023-12-29T09:27:19;13.70;;;3.42;;
54743;SDS011;40639;53.170;6.728;2023-12-29T09:29:45;16.15;;;3.22;;
54743;SDS011;40639;53.170;6.728;2023-12-29T09:32:11;14.00;;;3.40;;
54743;SDS011;40639;53.170;6.728;2023-12-29T09:34:37;18.63;;;3.95;;
54743;SDS011;40639;53.170;6.728;2023-12-29T09:37:04;23.73;;;5.53;;
54743;SDS011;40639;53.170;6.728;2023-12-29T09:39:30;26.63;;;3.67;;
54743;SDS011;40639;53.170;6.728;2023-12-29T09:41:58;9.90;;;2.90;;
54743;SDS011;40639;53.170;6.728;2023-12-29T09:44:27;24.52;;;4.43;;
54743;SDS011;40639;53.170;6.728;2023-12-29T09:46:54;23.15;;;3.75;;
54743;SDS011;40639;53.170;6.728;2023-12-29T09:49:20;11.73;;;3.03;;
54743;SDS011;40639;53.170;6.728;2023-12-29T09:51:47;15.20;;;3.35;;
54743;SDS011;40639;53.170;6.728;2023-12-29T09:54:14;16.10;;;3.67;;
54743;SDS011;40639;53.170;6.728;2023-12-29T09:56:40;15.13;;;3.38;;
54743;SDS011;40639;53.170;6.728;2023-12-29T09:59:08;16.85;;;3.60;;
54743;SDS011;40639;53.170;6.728;2023-12-29T10:01:36;18.58;;;4.18;;
54743;SDS011;40639;53.170;6.728;2023-12-29T10:04:03;12.43;;;3.45;;
54743;SDS011;40639;53.170;6.728;2023-12-29T10:06:30;15.30;;;3.47;;
54743;SDS011;40639;53.170;6.728;2023-12-29T10:08:57;14.63;;;3.00;;
54743;SDS011;40639;53.170;6.728;2023-12-29T10:11:23;19.55;;;3.88;;
54743;SDS011;40639;53.170;6.728;2023-12-29T10:13:50;17.48;;;3.53;;
54743;SDS011;40639;53.170;6.728;2023-12-29T10:18:49;13.15;;;4.43;;
54743;SDS011;40639;53.170;6.728;2023-12-29T10:21:25;17.98;;;3.58;;
54743;SDS011;40639;53.170;6.728;2023-12-29T10:26:22;14.40;;;3.20;;
54743;SDS011;40639;53.170;6.728;2023-12-29T10:28:49;20.73;;;4.00;;
54743;SDS011;40639;53.170;6.728;2023-12-29T10:31:15;15.77;;;3.20;;
54743;SDS011;40639;53.170;6.728;2023-12-29T10:33:41;12.25;;;3.13;;
54743;SDS011;40639;53.170;6.728;2023-12-29T10:36:08;17.85;;;3.72;;
54743;SDS011;40639;53.170;6.728;2023-12-29T10:38:38;13.77;;;3.08;;
54743;SDS011;40639;53.170;6.728;2023-12-29T10:41:13;17.60;;;3.17;;
54743;SDS011;40639;53.170;6.728;2023-12-29T10:43:44;10.38;;;2.97;;
54743;SDS011;40639;53.170;6.728;2023-12-29T10:46:17;8.88;;;3.15;;
54743;SDS011;40639;53.170;6.728;2023-12-29T10:48:43;14.93;;;3.42;;
54743;SDS011;40639;53.170;6.728;2023-12-29T10:51:09;11.10;;;2.53;;
54743;SDS011;40639;53.170;6.728;2023-12-29T10:53:36;9.77;;;2.78;;
54743;SDS011;40639;53.170;6.728;2023-12-29T10:56:02;18.00;;;3.50;;
54743;SDS011;40639;53.170;6.728;2023-12-29T10:58:28;9.57;;;3.40;;
54743;SDS011;40639;53.170;6.728;2023-12-29T11:00:58;9.35;;;2.38;;
54743;SDS011;40639;53.170;6.728;2023-12-29T11:03:25;8.77;;;2.30;;
54743;SDS011;40639;53.170;6.728;2023-12-29T11:05:58;9.93;;;2.05;;
54743;SDS011;40639;53.170;6.728;2023-12-29T11:08:27;9.68;;;2.30;;
54743;SDS011;40639;53.170;6.728;2023-12-29T11:10:53;11.35;;;2.17;;
54743;SDS011;40639;53.170;6.728;2023-12-29T11:13:20;8.13;;;1.92;;
54743;SDS011;40639;53.170;6.728;2023-12-29T11:15:47;8.85;;;3.13;;
54743;SDS011;40639;53.170;6.728;2023-12-29T11:18:16;11.50;;;2.85;;
54743;SDS011;40639;53.170;6.728;2023-12-29T11:20:43;6.50;;;2.33;;
54743;SDS011;40639;53.170;6.728;2023-12-29T11:23:10;8.88;;;1.92;;
54743;SDS011;40639;53.170;6.728;2023-12-29T11:25:38;11.65;;;2.90;;
54743;SDS011;40639;53.170;6.728;2023-12-29T11:28:06;12.35;;;2.92;;
54743;SDS011;40639;53.170;6.728;2023-12-29T11:30:32;6.80;;;1.80;;
54743;SDS011;40639;53.170;6.728;2023-12-29T11:32:59;12.73;;;2.47;;
54743;SDS011;40639;53.170;6.728;2023-12-29T11:40:49;8.05;;;2.30;;
54743;SDS011;40639;53.170;6.728;2023-12-29T11:43:16;14.65;;;2.85;;
54743;SDS011;40639;53.170;6.728;2023-12-29T11:45:43;12.55;;;3.15;;
54743;SDS011;40639;53.170;6.728;2023-12-29T11:48:10;8.48;;;1.77;;
54743;SDS011;40639;53.170;6.728;2023-12-29T11:50:39;8.55;;;1.67;;
54743;SDS011;40639;53.170;6.728;2023-12-29T11:53:06;11.07;;;1.95;;
54743;SDS011;40639;53.170;6.728;2023-12-29T11:55:37;10.65;;;2.10;;
54743;SDS011;40639;53.170;6.728;2023-12-29T12:00:48;6.78;;;1.80;;
54743;SDS011;40639;53.170;6.728;2023-12-29T12:03:18;7.97;;;1.90;;
54743;SDS011;40639;53.170;6.728;2023-12-29T12:05:47;8.98;;;1.83;;
54743;SDS011;40639;53.170;6.728;2023-12-29T12:08:46;9.68;;;2.35;;
54743;SDS011;40639;53.170;6.728;2023-12-29T12:13:50;10.10;;;1.80;;
54743;SDS011;40639;53.170;6.728;2023-12-29T12:16:59;11.98;;;2.03;;
54743;SDS011;40639;53.170;6.728;2023-12-29T12:19:06;10.52;;;1.83;;
54743;SDS011;40639;53.170;6.728;2023-12-29T12:21:32;14.27;;;1.95;;
54743;SDS011;40639;53.170;6.728;2023-12-29T12:23:58;9.95;;;1.90;;
54743;SDS011;40639;53.170;6.728;2023-12-29T12:26:25;8.68;;;1.48;;
54743;SDS011;40639;53.170;6.728;2023-12-29T12:28:52;10.77;;;1.92;;
54743;SDS011;40639;53.170;6.728;2023-12-29T12:31:18;9.90;;;2.47;;
54743;SDS011;40639;53.170;6.728;2023-12-29T12:33:53;9.85;;;2.00;;
54743;SDS011;40639;53.170;6.728;2023-12-29T12:36:20;10.57;;;1.98;;
54743;SDS011;40639;53.170;6.728;2023-12-29T12:38:52;8.48;;;1.77;;
54743;SDS011;40639;53.170;6.728;2023-12-29T12:41:20;12.85;;;2.03;;
54743;SDS011;40639;53.170;6.728;2023-12-29T12:43:50;6.85;;;1.65;;
54743;SDS011;40639;53.170;6.728;2023-12-29T12:46:16;10.35;;;1.95;;
54743;SDS011;40639;53.170;6.728;2023-12-29T12:48:43;7.82;;;1.70;;
54743;SDS011;40639;53.170;6.728;2023-12-29T12:51:11;6.18;;;2.40;;
54743;SDS011;40639;53.170;6.728;2023-12-29T12:53:41;8.55;;;1.73;;
54743;SDS011;40639;53.170;6.728;2023-12-29T12:56:09;7.28;;;1.90;;
54743;SDS011;40639;53.170;6.728;2023-12-29T12:58:35;8.18;;;2.35;;
54743;SDS011;40639;53.170;6.728;2023-12-29T13:01:01;9.32;;;2.42;;
54743;SDS011;40639;53.170;6.728;2023-12-29T13:03:28;10.15;;;2.10;;
54743;SDS011;40639;53.170;6.728;2023-12-29T13:05:54;11.30;;;1.75;;
54743;SDS011;40639;53.170;6.728;2023-12-29T13:08:23;7.82;;;2.33;;
54743;SDS011;40639;53.170;6.728;2023-12-29T13:10:50;8.70;;;1.73;;
54743;SDS011;40639;53.170;6.728;2023-12-29T13:13:16;10.68;;;2.40;;
54743;SDS011;40639;53.170;6.728;2023-12-29T13:15:49;8.00;;;1.77;;
54743;SDS011;40639;53.170;6.728;2023-12-29T13:18:16;10.05;;;2.33;;
54743;SDS011;40639;53.170;6.728;2023-12-29T13:20:43;10.02;;;1.77;;
54743;SDS011;40639;53.170;6.728;2023-12-29T13:23:10;10.10;;;2.45;;
54743;SDS011;40639;53.170;6.728;2023-12-29T13:25:36;8.07;;;2.08;;
54743;SDS011;40639;53.170;6.728;2023-12-29T13:28:05;7.88;;;1.70;;
54743;SDS011;40639;53.170;6.728;2023-12-29T13:30:32;9.70;;;2.13;;
54743;SDS011;40639;53.170;6.728;2023-12-29T13:32:58;5.85;;;1.52;;
54743;SDS011;40639;53.170;6.728;2023-12-29T13:35:29;10.82;;;2.13;;
54743;SDS011;40639;53.170;6.728;2023-12-29T13:40:27;12.70;;;2.40;;
54743;SDS011;40639;53.170;6.728;2023-12-29T13:42:59;11.63;;;2.10;;
54743;SDS011;40639;53.170;6.728;2023-12-29T13:45:28;9.68;;;2.58;;
54743;SDS011;40639;53.170;6.728;2023-12-29T13:47:55;8.23;;;1.77;;
54743;SDS011;40639;53.170;6.728;2023-12-29T13:50:22;8.95;;;2.00;;
54743;SDS011;40639;53.170;6.728;2023-12-29T13:52:49;8.25;;;1.63;;
54743;SDS011;40639;53.170;6.728;2023-12-29T13:55:22;6.40;;;1.70;;
54743;SDS011;40639;53.170;6.728;2023-12-29T13:57:49;11.63;;;2.50;;
54743;SDS011;40639;53.170;6.728;2023-12-29T14:00:16;9.00;;;1.83;;
54743;SDS011;40639;53.170;6.728;2023-12-29T14:02:48;9.48;;;1.98;;
54743;SDS011;40639;53.170;6.728;2023-12-29T14:05:20;10.73;;;2.20;;
54743;SDS011;40639;53.170;6.728;2023-12-29T14:08:31;13.80;;;2.28;;
54743;SDS011;40639;53.170;6.728;2023-12-29T14:10:38;7.25;;;1.70;;
54743;SDS011;40639;53.170;6.728;2023-12-29T14:13:08;16.83;;;2.08;;
54743;SDS011;40639;53.170;6.728;2023-12-29T14:15:37;7.80;;;2.13;;
54743;SDS011;40639;53.170;6.728;2023-12-29T14:20:33;5.95;;;1.80;;
54743;SDS011;40639;53.170;6.728;2023-12-29T14:23:03;10.48;;;1.70;;
54743;SDS011;40639;53.170;6.728;2023-12-29T14:25:31;10.80;;;3.25;;
54743;SDS011;40639;53.170;6.728;2023-12-29T14:28:01;8.80;;;2.15;;
54743;SDS011;40639;53.170;6.728;2023-12-29T14:30:27;7.50;;;2.15;;
54743;SDS011;40639;53.170;6.728;2023-12-29T14:32:57;10.15;;;1.85;;
54743;SDS011;40639;53.170;6.728;2023-12-29T14:35:23;8.40;;;2.63;;
54743;SDS011;40639;53.170;6.728;2023-12-29T14:37:50;9.02;;;2.35;;
54743;SDS011;40639;53.170;6.728;2023-12-29T14:40:16;9.48;;;2.30;;
54743;SDS011;40639;53.170;6.728;2023-12-29T14:42:42;9.88;;;1.85;;
54743;SDS011;40639;53.170;6.728;2023-12-29T14:45:08;12.60;;;2.85;;
54743;SDS011;40639;53.170;6.728;2023-12-29T14:47:35;11.07;;;1.90;;
54743;SDS011;40639;53.170;6.728;2023-12-29T14:50:01;12.25;;;2.55;;
54743;SDS011;40639;53.170;6.728;2023-12-29T14:52:28;11.45;;;2.38;;
54743;SDS011;40639;53.170;6.728;2023-12-29T14:54:54;10.02;;;1.92;;
54743;SDS011;40639;53.170;6.728;2023-12-29T14:57:20;14.55;;;2.17;;
54743;SDS011;40639;53.170;6.728;2023-12-29T14:59:46;10.77;;;2.03;;
54743;SDS011;40639;53.170;6.728;2023-12-29T15:02:12;9.82;;;2.42;;